Time;durP1;ratioP1;P1;durP2;ratioP2;P2;SDS_P1;SDS_P2;PMS_P1;PMS_P2;Temp;Humidity;BMP_temperature;BMP_pressure;BME280_temperature;BME280_humidity;BME280_pressure;Samples;Min_cycle;Max_cycle;Signal;HPM_P1;HPM_P2
2021/12/29 00:01:25;;;;;;;33.42;5.85;;;;;;;8.51;100.00;100072.31;5031469;28;20442;-43
2021/12/29 00:03:50;;;;;;;32.20;5.25;;;;;;;8.51;100.00;100083.03;5030441;28;20041;-43
2021/12/29 00:06:16;;;;;;;27.42;4.55;;;;;;;8.53;100.00;100078.31;5033170;28;20029;-43
2021/12/29 00:08:41;;;;;;;30.70;5.38;;;;;;;8.51;100.00;100084.88;5046092;28;20481;-42
2021/12/29 00:11:07;;;;;;;38.42;5.65;;;;;;;8.52;100.00;100090.06;5031434;28;20036;-42
2021/12/29 00:13:32;;;;;;;26.73;5.47;;;;;;;8.50;100.00;100081.34;5031760;28;20401;-43
2021/12/29 00:15:58;;;;;;;34.03;4.85;;;;;;;8.51;100.00;100091.09;5031597;28;20506;-43
2021/12/29 00:18:26;;;;;;;30.38;4.45;;;;;;;8.51;100.00;100100.97;5031973;28;20035;-43
2021/12/29 00:20:51;;;;;;;37.97;4.72;;;;;;;8.50;100.00;100094.75;5031343;28;20369;-43
2021/12/29 00:23:16;;;;;;;26.23;3.65;;;;;;;8.54;100.00;100112.16;5031576;28;20026;-43
2021/12/29 00:25:42;;;;;;;33.95;5.05;;;;;;;8.54;100.00;100116.69;5031975;28;20036;-43
2021/12/29 00:28:07;;;;;;;26.83;3.75;;;;;;;8.56;100.00;100125.41;5031380;28;20029;-42
2021/12/29 00:30:33;;;;;;;28.45;4.63;;;;;;;8.53;100.00;100121.22;5031839;28;20029;-42
2021/12/29 00:32:58;;;;;;;31.60;4.57;;;;;;;8.57;100.00;100106.41;5030892;28;20587;-43
2021/12/29 00:35:24;;;;;;;24.33;3.75;;;;;;;8.54;100.00;100125.56;5031654;28;20436;-42
2021/12/29 00:37:49;;;;;;;18.95;3.53;;;;;;;8.53;100.00;100129.28;5030153;28;20035;-42
2021/12/29 00:40:14;;;;;;;21.15;3.90;;;;;;;8.51;100.00;100117.06;5031365;28;20041;-43
2021/12/29 00:42:40;;;;;;;26.55;5.53;;;;;;;8.52;100.00;100130.28;5031303;28;20050;-43
2021/12/29 00:45:07;;;;;;;26.05;4.07;;;;;;;8.53;100.00;100133.78;5031540;28;20044;-42
2021/12/29 00:47:34;;;;;;;28.27;4.28;;;;;;;8.51;100.00;100138.53;5031441;28;20033;-43
2021/12/29 00:50:01;;;;;;;37.30;4.53;;;;;;;8.45;100.00;100145.47;5030696;28;20033;-43
2021/12/29 00:52:26;;;;;;;37.45;5.00;;;;;;;8.43;100.00;100144.00;5034677;28;20032;-42
2021/12/29 00:54:52;;;;;;;34.53;5.63;;;;;;;8.46;100.00;100147.13;5034749;28;20033;-42
2021/12/29 00:57:17;;;;;;;25.00;4.40;;;;;;;8.47;100.00;100158.69;5035126;28;20017;-42
2021/12/29 00:59:42;;;;;;;28.30;4.03;;;;;;;8.45;100.00;100166.94;5034881;28;20076;-42
2021/12/29 01:02:08;;;;;;;27.25;4.13;;;;;;;8.43;100.00;100168.13;5034378;28;20029;-42
2021/12/29 01:04:33;;;;;;;18.70;3.72;;;;;;;8.44;100.00;100175.97;5034727;28;20061;-43
2021/12/29 01:06:59;;;;;;;20.23;3.65;;;;;;;8.47;100.00;100178.28;5034688;28;20026;-43
2021/12/29 01:09:24;;;;;;;24.95;4.03;;;;;;;8.49;100.00;100197.69;5034437;28;20033;-42
2021/12/29 01:11:54;;;;;;;20.25;3.70;;;;;;;8.51;100.00;100195.69;5034416;28;20112;-42
2021/12/29 01:14:22;;;;;;;22.95;4.40;;;;;;;8.50;100.00;100185.94;5034766;28;20477;-43
2021/12/29 01:16:47;;;;;;;20.33;3.58;;;;;;;8.51;100.00;100195.69;5034655;28;20388;-42
2021/12/29 01:19:16;;;;;;;22.20;3.65;;;;;;;8.54;100.00;100197.97;5034611;28;20029;-43
2021/12/29 01:21:44;;;;;;;24.85;3.92;;;;;;;8.51;100.00;100216.31;5033856;28;20132;-42
2021/12/29 01:24:11;;;;;;;26.20;3.70;;;;;;;8.48;100.00;100214.81;5034116;28;20432;-43
2021/12/29 01:26:37;;;;;;;20.67;4.57;;;;;;;8.53;100.00;100217.78;5034377;28;20033;-42
2021/12/29 01:29:03;;;;;;;24.08;3.63;;;;;;;8.49;100.00;100224.53;5034315;28;20061;-42
2021/12/29 01:31:29;;;;;;;21.67;3.70;;;;;;;8.47;100.00;100229.22;5032807;28;20057;-42
2021/12/29 01:33:54;;;;;;;27.25;3.58;;;;;;;8.52;100.00;100237.56;5032967;28;20029;-43
2021/12/29 01:36:19;;;;;;;18.92;3.22;;;;;;;8.54;100.00;100238.22;5034271;28;20021;-42
2021/12/29 01:38:45;;;;;;;40.20;4.82;;;;;;;8.50;100.00;100249.47;5033905;28;20025;-42
2021/12/29 01:41:10;;;;;;;41.42;4.57;;;;;;;8.48;100.00;100252.38;5033966;28;20025;-43
2021/12/29 01:43:36;;;;;;;32.20;4.25;;;;;;;8.51;100.00;100249.31;5033858;28;20046;-42
2021/12/29 01:46:01;;;;;;;40.15;4.93;;;;;;;8.50;100.00;100258.34;5032860;28;20108;-42
2021/12/29 01:48:26;;;;;;;36.83;4.70;;;;;;;8.48;100.00;100257.72;5034049;28;20030;-43
2021/12/29 01:50:52;;;;;;;48.78;5.78;;;;;;;8.49;100.00;100254.03;5033713;28;20025;-42
2021/12/29 01:53:24;;;;;;;44.55;4.90;;;;;;;8.49;100.00;100256.69;5033729;28;20083;-42
2021/12/29 01:55:50;;;;;;;31.52;4.68;;;;;;;8.49;100.00;100259.38;5034151;28;20033;-42
2021/12/29 01:58:16;;;;;;;24.27;4.50;;;;;;;8.47;100.00;100252.53;5032469;28;20021;-42
2021/12/29 02:00:42;;;;;;;31.50;6.57;;;;;;;8.49;100.00;100261.25;5033848;28;20026;-43
2021/12/29 02:03:08;;;;;;;37.63;5.35;;;;;;;8.48;100.00;100271.13;5033440;28;20421;-42
2021/12/29 02:05:37;;;;;;;38.00;4.82;;;;;;;8.48;100.00;100267.63;5033726;28;20057;-42
2021/12/29 02:08:05;;;;;;;25.48;5.50;;;;;;;8.45;100.00;100273.34;5033663;28;20094;-43
2021/12/29 02:10:33;;;;;;;30.13;5.50;;;;;;;8.43;100.00;100286.13;5033672;28;20018;-43
2021/12/29 02:12:59;;;;;;;40.05;5.82;;;;;;;8.46;100.00;100286.56;5032718;28;20028;-42
2021/12/29 02:15:24;;;;;;;33.55;5.80;;;;;;;8.46;100.00;100280.38;5033101;28;20041;-43
2021/12/29 02:17:50;;;;;;;45.03;7.50;;;;;;;8.42;100.00;100282.56;5033550;28;20101;-43
2021/12/29 02:20:19;;;;;;;46.33;6.40;;;;;;;8.43;100.00;100278.06;5033554;28;20028;-44
2021/12/29 02:22:48;;;;;;;38.53;6.40;;;;;;;8.42;100.00;100287.94;5032973;28;20068;-43
2021/12/29 02:27:46;;;;;;;49.13;6.82;;;;;;;8.40;100.00;100292.66;5033179;28;20504;-43
2021/12/29 02:30:12;;;;;;;41.83;7.82;;;;;;;8.41;100.00;100285.44;5033338;28;20488;-43
2021/12/29 02:32:38;;;;;;;30.55;5.90;;;;;;;8.45;100.00;100279.56;5033056;28;20033;-43
2021/12/29 02:35:04;;;;;;;32.60;6.00;;;;;;;8.43;100.00;100283.44;5033204;28;20033;-42
2021/12/29 02:37:29;;;;;;;37.58;6.53;;;;;;;8.41;100.00;100288.97;5032146;28;20030;-43
2021/12/29 02:39:55;;;;;;;52.17;7.85;;;;;;;8.41;100.00;100298.88;5033313;28;20052;-43
2021/12/29 02:42:25;;;;;;;31.88;6.72;;;;;;;8.39;100.00;100306.22;5033157;28;20131;-43
2021/12/29 02:44:52;;;;;;;40.33;7.32;;;;;;;8.36;100.00;100302.88;5031765;28;20037;-43
2021/12/29 02:47:17;;;;;;;54.28;8.63;;;;;;;8.35;100.00;100316.47;5032320;28;20143;-43
2021/12/29 02:49:42;;;;;;;44.33;7.80;;;;;;;8.34;100.00;100320.16;5032886;28;20060;-43
2021/12/29 02:52:09;;;;;;;36.15;8.43;;;;;;;8.35;100.00;100325.34;5032548;28;20033;-43
2021/12/29 02:54:35;;;;;;;45.25;8.68;;;;;;;8.33;100.00;100329.22;5033157;28;20032;-42
2021/12/29 02:57:00;;;;;;;52.95;9.25;;;;;;;8.32;100.00;100343.63;5032719;28;20021;-43
2021/12/29 02:59:25;;;;;;;45.90;9.48;;;;;;;8.32;100.00;100338.25;5032389;28;20039;-42
2021/12/29 03:01:51;;;;;;;48.63;9.60;;;;;;;8.34;100.00;100346.97;5032714;28;20060;-43
2021/12/29 03:04:17;;;;;;;32.28;7.75;;;;;;;8.33;100.00;100362.22;5032469;28;20078;-43
2021/12/29 03:06:42;;;;;;;39.20;7.13;;;;;;;8.32;100.00;100365.06;5031927;28;20638;-43
2021/12/29 03:09:10;;;;;;;47.22;7.25;;;;;;;8.33;100.00;100366.75;5032323;28;20025;-42
2021/12/29 03:11:36;;;;;;;42.40;6.00;;;;;;;8.32;100.00;100365.94;5032013;28;20431;-43
2021/12/29 03:14:01;;;;;;;37.63;5.50;;;;;;;8.31;100.00;100366.09;5031981;28;20033;-43
2021/12/29 03:16:27;;;;;;;27.20;4.20;;;;;;;8.32;100.00;100365.94;5037403;28;20029;-42
2021/12/29 03:18:53;;;;;;;40.05;5.95;;;;;;;8.33;100.00;100372.13;5051324;28;20021;-42
2021/12/29 03:21:18;;;;;;;31.20;3.72;;;;;;;8.35;100.00;100375.47;5049183;28;20378;-42
2021/12/29 03:23:44;;;;;;;66.32;7.20;;;;;;;8.33;100.00;100380.16;5032250;28;20057;-42
2021/12/29 03:26:09;;;;;;;27.50;4.20;;;;;;;8.32;100.00;100382.03;5030824;28;20049;-43
2021/12/29 03:28:37;;;;;;;41.53;4.28;;;;;;;8.32;100.00;100386.53;5032426;28;20028;-42
2021/12/29 03:31:03;;;;;;;31.33;3.80;;;;;;;8.32;100.00;100398.09;5032637;28;20033;-42
2021/12/29 03:33:29;;;;;;;31.35;3.75;;;;;;;8.34;100.00;100411.31;5032148;28;20037;-44
2021/12/29 03:36:02;;;;;;;32.00;3.55;;;;;;;8.34;100.00;100406.78;5032388;28;20033;-43
2021/12/29 03:38:29;;;;;;;30.92;4.38;;;;;;;8.35;100.00;100415.69;5032199;28;20521;-43
2021/12/29 03:40:56;;;;;;;37.50;3.90;;;;;;;8.32;100.00;100407.97;5032183;28;20024;-43
2021/12/29 03:43:21;;;;;;;31.63;4.25;;;;;;;8.37;100.00;100416.31;5031756;28;20069;-43
2021/12/29 03:45:50;;;;;;;44.38;4.82;;;;;;;8.36;100.00;100420.03;5031784;28;20457;-43
2021/12/29 03:48:15;;;;;;;35.40;4.45;;;;;;;8.39;100.00;100418.84;5032211;28;20037;-43
2021/12/29 03:50:42;;;;;;;49.45;7.82;;;;;;;8.35;100.00;100413.84;5031943;28;20026;-47
2021/12/29 03:53:08;;;;;;;34.50;4.45;;;;;;;8.35;100.00;100421.06;5031803;28;20470;-47
2021/12/29 03:55:33;;;;;;;42.75;5.25;;;;;;;8.33;100.00;100420.38;5031518;28;20052;-48
2021/12/29 03:57:59;;;;;;;42.72;4.45;;;;;;;8.29;100.00;100425.28;5031420;28;20477;-50
2021/12/29 04:00:24;;;;;;;45.75;5.40;;;;;;;8.26;100.00;100420.25;5032814;28;20370;-49
2021/12/29 04:02:50;;;;;;;33.80;4.75;;;;;;;8.21;100.00;100416.44;5032271;28;20021;-48
2021/12/29 04:05:21;;;;;;;36.33;6.30;;;;;;;8.24;100.00;100426.78;5033933;28;20022;-49
2021/12/29 04:07:47;;;;;;;34.08;5.00;;;;;;;8.23;100.00;100425.13;5032115;28;20033;-46
2021/12/29 04:10:12;;;;;;;29.67;4.90;;;;;;;8.23;100.00;100427.81;5031569;28;20029;-46
2021/12/29 04:12:41;;;;;;;42.40;5.57;;;;;;;8.18;100.00;100417.63;5031262;28;20036;-45
2021/12/29 04:15:09;;;;;;;40.88;5.25;;;;;;;8.16;100.00;100422.31;5031744;28;20025;-46
2021/12/29 04:17:38;;;;;;;28.85;5.63;;;;;;;8.14;100.00;100433.22;5031717;28;20018;-45
2021/12/29 04:22:52;;;;;;;37.47;5.65;;;;;;;8.20;100.00;100420.13;5031231;28;20091;-46
2021/12/29 04:25:23;;;;;;;25.80;5.30;;;;;;;8.17;100.00;100434.72;5032597;28;20037;-43
2021/12/29 04:27:48;;;;;;;36.38;5.50;;;;;;;8.16;100.00;100442.94;5035396;28;20456;-43
2021/12/29 04:30:14;;;;;;;41.55;5.40;;;;;;;8.18;100.00;100448.97;5033794;28;20038;-43
2021/12/29 04:32:39;;;;;;;25.48;5.90;;;;;;;8.17;100.00;100458.84;5035537;28;20452;-44
2021/12/29 04:35:05;;;;;;;26.75;5.32;;;;;;;8.18;100.00;100463.19;5035714;28;20022;-43
2021/12/29 04:37:30;;;;;;;31.42;5.40;;;;;;;8.18;100.00;100457.00;5035597;28;20030;-42
2021/12/29 04:39:55;;;;;;;30.50;5.15;;;;;;;8.18;100.00;100467.72;5035430;28;20033;-43
2021/12/29 04:42:21;;;;;;;28.83;4.28;;;;;;;8.19;100.00;100466.69;5033532;28;20481;-42
2021/12/29 04:44:46;;;;;;;40.63;5.82;;;;;;;8.20;100.00;100463.03;5017437;28;20366;-41
2021/12/29 04:47:12;;;;;;;27.60;4.93;;;;;;;8.25;100.00;100472.22;5035129;28;20544;-43
2021/12/29 04:49:41;;;;;;;37.10;5.57;;;;;;;8.25;100.00;100471.38;5035155;28;20433;-42
2021/12/29 04:52:11;;;;;;;25.15;5.40;;;;;;;8.28;100.00;100477.22;5015357;28;20499;-43
2021/12/29 04:54:37;;;;;;;22.30;5.13;;;;;;;8.27;99.66;100472.03;5015440;28;20103;-42
2021/12/29 04:57:04;;;;;;;27.27;5.40;;;;;;;8.26;99.69;100476.53;5032792;28;20034;-43
2021/12/29 04:59:29;;;;;;;29.45;7.15;;;;;;;8.25;99.86;100482.09;5034923;28;20076;-43
2021/12/29 05:01:55;;;;;;;26.30;5.53;;;;;;;8.27;99.34;100482.78;5034351;28;20477;-42
2021/12/29 05:04:23;;;;;;;39.70;6.53;;;;;;;8.26;99.03;100483.75;5034788;28;20034;-43
2021/12/29 05:09:33;;;;;;;43.17;6.55;;;;;;;8.30;99.51;100482.41;5034961;28;20049;-43
2021/12/29 05:12:01;;;;;;;25.88;6.50;;;;;;;8.27;99.57;100480.91;5033164;28;20405;-41
2021/12/29 05:14:26;;;;;;;33.28;6.20;;;;;;;8.30;99.51;100485.91;5034360;28;20037;-43
2021/12/29 05:16:52;;;;;;;26.17;7.78;;;;;;;8.32;99.26;100477.69;5034732;28;20028;-41
2021/12/29 05:19:17;;;;;;;26.40;6.30;;;;;;;8.31;99.03;100484.06;5034328;28;20021;-42
2021/12/29 05:21:42;;;;;;;19.23;6.38;;;;;;;8.27;99.55;100488.97;5034382;28;20033;-42
2021/12/29 05:24:08;;;;;;;37.38;6.32;;;;;;;8.27;99.15;100488.13;5034064;28;20388;-43
2021/12/29 05:26:34;;;;;;;27.83;7.38;;;;;;;8.29;99.54;100494.13;5034843;28;20029;-43
2021/12/29 05:28:59;;;;;;;24.13;6.90;;;;;;;8.26;99.65;100491.81;5034437;28;20018;-43
2021/12/29 05:31:25;;;;;;;29.80;6.90;;;;;;;8.26;99.36;100491.81;5034319;28;20147;-43
2021/12/29 05:33:50;;;;;;;24.90;6.38;;;;;;;8.26;99.49;100489.13;5033947;28;20604;-43
2021/12/29 05:36:16;;;;;;;21.10;6.75;;;;;;;8.27;99.18;100494.31;5032603;28;20050;-43
2021/12/29 05:38:41;;;;;;;27.20;7.10;;;;;;;8.28;99.57;100495.97;5032930;28;20079;-43
2021/12/29 05:41:06;;;;;;;25.08;6.28;;;;;;;8.26;99.18;100498.00;5032896;28;20061;-43
2021/12/29 05:43:32;;;;;;;30.58;6.53;;;;;;;8.27;99.23;100509.56;5034088;28;20049;-43
2021/12/29 05:45:57;;;;;;;29.55;6.88;;;;;;;8.27;99.59;100504.22;5034255;28;20083;-43
2021/12/29 05:48:22;;;;;;;19.67;5.75;;;;;;;8.27;99.53;100504.22;5033830;28;20129;-43
2021/12/29 05:50:48;;;;;;;20.00;6.15;;;;;;;8.28;98.90;100506.69;5033965;28;20029;-42
2021/12/29 05:53:13;;;;;;;26.33;6.00;;;;;;;8.25;99.26;100509.75;5033743;28;20029;-43
2021/12/29 05:55:41;;;;;;;28.58;5.78;;;;;;;8.23;99.07;100508.25;5034198;28;20030;-43
2021/12/29 05:58:07;;;;;;;25.80;6.38;;;;;;;8.23;98.92;100511.75;5033962;28;20060;-43
2021/12/29 06:00:33;;;;;;;19.88;5.82;;;;;;;8.24;99.01;100513.44;5033536;28;20037;-43
2021/12/29 06:02:58;;;;;;;21.10;5.90;;;;;;;8.23;99.06;100506.41;5033208;28;20029;-43
2021/12/29 06:05:24;;;;;;;28.27;5.70;;;;;;;8.24;99.17;100517.94;5033500;28;20056;-44
2021/12/29 06:07:49;;;;;;;29.50;5.90;;;;;;;8.24;99.06;100512.59;5033586;28;20072;-43
2021/12/29 06:10:15;;;;;;;17.10;5.10;;;;;;;8.23;99.01;100510.94;5033202;28;20047;-43
2021/12/29 06:12:40;;;;;;;23.95;5.60;;;;;;;8.23;98.60;100511.75;5033542;28;20025;-44
2021/12/29 06:15:07;;;;;;;15.23;5.53;;;;;;;8.24;98.73;100513.44;5033324;28;20033;-44
2021/12/29 06:17:33;;;;;;;21.55;5.40;;;;;;;8.21;98.23;100512.94;5045372;28;20686;-43
2021/12/29 06:19:58;;;;;;;36.38;5.60;;;;;;;8.18;97.66;100518.66;5029329;28;20043;-43
2021/12/29 06:22:24;;;;;;;16.45;6.25;;;;;;;8.18;96.93;100515.97;5029302;28;20028;-43
2021/12/29 06:24:52;;;;;;;21.08;4.80;;;;;;;8.17;96.98;100512.47;5032996;28;20033;-43
2021/12/29 06:27:18;;;;;;;21.17;4.90;;;;;;;8.21;97.33;100521.81;5033061;28;20532;-42
2021/12/29 06:29:44;;;;;;;33.95;5.85;;;;;;;8.20;97.38;100519.31;5033306;28;20413;-42
2021/12/29 06:32:09;;;;;;;15.60;6.55;;;;;;;8.21;97.61;100520.97;5036219;28;20083;-43
2021/12/29 06:34:36;;;;;;;20.00;6.18;;;;;;;8.20;97.69;100527.38;5032707;28;20495;-43
2021/12/29 06:37:03;;;;;;;25.15;6.32;;;;;;;8.18;97.77;100524.84;5031697;28;20018;-42
2021/12/29 06:39:29;;;;;;;26.73;7.38;;;;;;;8.20;97.91;100527.38;5040742;28;20043;-42
2021/12/29 06:41:54;;;;;;;16.35;6.97;;;;;;;8.19;97.72;100521.16;5049478;28;20113;-43
2021/12/29 06:44:20;;;;;;;23.80;7.45;;;;;;;8.22;98.13;100525.34;5049618;28;20140;-42
2021/12/29 06:46:45;;;;;;;18.90;8.20;;;;;;;8.20;97.81;100535.41;5029051;28;20509;-44
2021/12/29 06:49:10;;;;;;;28.30;7.80;;;;;;;8.22;97.64;100541.44;5023160;28;20119;-43
2021/12/29 06:51:36;;;;;;;30.35;8.38;;;;;;;8.21;98.02;100539.75;5026993;28;20065;-41
2021/12/29 06:54:01;;;;;;;19.00;8.05;;;;;;;8.22;98.16;100544.13;5027323;28;20061;-42
2021/12/29 06:56:26;;;;;;;18.98;7.85;;;;;;;8.21;98.04;100545.94;5028720;28;20057;-41
2021/12/29 06:58:52;;;;;;;24.83;8.60;;;;;;;8.23;98.54;100537.72;5029049;28;20033;-42
2021/12/29 07:01:17;;;;;;;39.20;8.85;;;;;;;8.21;98.35;100553.16;5026889;28;20121;-44
2021/12/29 07:03:43;;;;;;;30.05;9.20;;;;;;;8.20;98.49;100560.38;5028842;28;20037;-43
2021/12/29 07:06:08;;;;;;;27.77;8.65;;;;;;;8.19;98.51;100568.56;5028907;28;20733;-45
2021/12/29 07:08:34;;;;;;;25.80;8.80;;;;;;;8.16;98.66;100568.91;5028955;28;20116;-43
2021/12/29 07:11:00;;;;;;;23.98;8.52;;;;;;;8.16;98.54;100568.91;5026208;28;20033;-43
2021/12/29 07:13:25;;;;;;;27.90;9.00;;;;;;;8.13;98.87;100575.47;5028047;28;20124;-43
2021/12/29 07:15:50;;;;;;;25.95;9.77;;;;;;;8.13;98.67;100576.28;5028224;28;20557;-42
2021/12/29 07:18:16;;;;;;;29.75;9.15;;;;;;;8.12;99.14;100582.66;5028431;28;20521;-42
2021/12/29 07:20:44;;;;;;;27.90;8.73;;;;;;;8.14;99.19;100577.97;5028373;28;20111;-41
2021/12/29 07:23:09;;;;;;;33.17;9.18;;;;;;;8.15;99.57;100578.81;5028746;28;20393;-43
2021/12/29 07:25:35;;;;;;;29.42;9.98;;;;;;;8.17;99.06;100575.97;5027177;28;20025;-42
2021/12/29 07:28:00;;;;;;;36.50;10.75;;;;;;;8.14;99.14;100580.66;5027700;28;20029;-42
2021/12/29 07:30:26;;;;;;;25.33;10.38;;;;;;;8.14;99.24;100572.63;5025147;28;20022;-42
2021/12/29 07:32:51;;;;;;;28.40;10.88;;;;;;;8.14;99.13;100572.63;5027286;28;20209;-42
2021/12/29 07:35:18;;;;;;;31.80;9.57;;;;;;;8.13;99.14;100570.09;5027495;28;20112;-42
2021/12/29 07:37:43;;;;;;;29.15;8.93;;;;;;;8.13;98.74;100570.09;5025984;28;20035;-41
2021/12/29 07:40:09;;;;;;;39.53;9.68;;;;;;;8.14;98.94;100563.75;5026866;28;20372;-43
2021/12/29 07:42:35;;;;;;;26.15;9.00;;;;;;;8.12;98.83;100558.53;5025312;28;20116;-42
2021/12/29 07:45:03;;;;;;;18.70;7.90;;;;;;;8.12;98.52;100557.72;5027671;28;20038;-43
2021/12/29 07:47:29;;;;;;;24.63;8.77;;;;;;;8.13;98.57;100560.19;5026229;28;20080;-44
2021/12/29 07:49:54;;;;;;;20.25;8.93;;;;;;;8.13;98.53;100562.88;5027180;28;20791;-43
2021/12/29 07:52:19;;;;;;;35.50;8.32;;;;;;;8.10;98.03;100565.91;5027401;28;20056;-42
2021/12/29 07:54:45;;;;;;;27.08;8.95;;;;;;;8.07;97.92;100566.25;5026981;28;20547;-43
2021/12/29 07:57:10;;;;;;;25.25;9.23;;;;;;;8.11;98.21;100567.59;5026835;28;20030;-43
2021/12/29 07:59:35;;;;;;;31.75;9.35;;;;;;;8.13;98.26;100568.25;5028243;28;20060;-43
2021/12/29 08:02:01;;;;;;;28.20;9.23;;;;;;;8.14;98.00;100571.78;5029960;28;20491;-43
2021/12/29 08:04:26;;;;;;;22.67;9.35;;;;;;;8.16;98.16;100560.88;5031224;28;20481;-43
2021/12/29 08:06:52;;;;;;;17.88;9.20;;;;;;;8.14;98.28;100564.56;5029783;28;20389;-42
2021/12/29 08:09:17;;;;;;;17.27;8.90;;;;;;;8.14;98.13;100561.91;5023503;28;20116;-44
2021/12/29 08:11:43;;;;;;;27.77;8.93;;;;;;;8.12;98.44;100569.25;5026271;28;20158;-43
2021/12/29 08:14:09;;;;;;;26.15;8.98;;;;;;;8.10;97.86;100582.00;5047636;28;20069;-44
2021/12/29 08:16:34;;;;;;;27.95;9.15;;;;;;;8.11;97.74;100577.50;5036940;28;20346;-43
2021/12/29 08:19:00;;;;;;;20.08;8.63;;;;;;;8.10;97.75;100576.63;5031633;28;20029;-43
2021/12/29 08:21:25;;;;;;;33.67;9.77;;;;;;;8.13;97.65;100570.09;5037527;28;20037;-44
2021/12/29 08:23:50;;;;;;;19.65;8.82;;;;;;;8.13;97.51;100565.56;5042612;28;20036;-44
2021/12/29 08:27:19;;;;;;;24.95;8.10;;;;;;;8.10;97.36;100571.28;5051714;28;20394;-44
2021/12/29 08:29:44;;;;;;;23.92;8.10;;;;;;;8.06;97.16;100575.31;5050378;28;20373;-43
2021/12/29 08:32:09;;;;;;;18.48;9.52;;;;;;;8.06;97.23;100580.69;5060233;28;20124;-43
2021/12/29 08:34:35;;;;;;;28.40;8.70;;;;;;;8.03;96.84;100575.69;5054595;28;20166;-42
2021/12/29 08:37:00;;;;;;;27.92;9.15;;;;;;;8.05;96.82;100579.00;5051792;28;20116;-44
2021/12/29 08:39:25;;;;;;;18.00;8.55;;;;;;;8.05;96.79;100573.63;5055978;28;20111;-42
2021/12/29 08:41:51;;;;;;;21.70;10.13;;;;;;;8.08;97.41;100572.47;5058306;28;20067;-43
2021/12/29 08:44:17;;;;;;;19.80;8.55;;;;;;;8.05;97.42;100579.00;5066369;28;20025;-43
2021/12/29 08:46:43;;;;;;;17.17;7.38;;;;;;;8.04;97.07;100576.50;5065122;28;20028;-44
2021/12/29 08:49:08;;;;;;;17.15;8.50;;;;;;;8.06;96.96;100569.97;5056736;28;20056;-44
2021/12/29 08:51:34;;;;;;;28.75;7.45;;;;;;;8.07;96.81;100571.63;5046334;28;20120;-46
2021/12/29 08:53:59;;;;;;;15.38;7.22;;;;;;;8.10;96.67;100567.75;5046356;28;20029;-43
2021/12/29 08:56:25;;;;;;;17.33;7.18;;;;;;;8.07;96.58;100560.06;5046858;28;20127;-43
2021/12/29 08:58:53;;;;;;;35.92;8.20;;;;;;;8.06;96.41;100558.41;5060443;28;20029;-43
2021/12/29 09:01:20;;;;;;;29.02;7.40;;;;;;;8.06;96.50;100563.78;5068257;28;20048;-44
2021/12/29 09:03:47;;;;;;;19.83;7.22;;;;;;;8.04;96.92;100555.91;5051349;28;20037;-45
2021/12/29 09:06:12;;;;;;;21.63;7.15;;;;;;;8.05;96.91;100562.91;5047421;28;20032;-45
2021/12/29 09:08:37;;;;;;;20.55;7.40;;;;;;;8.07;96.72;100566.25;5048869;28;20108;-43
2021/12/29 09:11:03;;;;;;;20.00;6.57;;;;;;;8.12;96.56;100563.06;5048513;28;20030;-44
2021/12/29 09:13:29;;;;;;;19.05;7.22;;;;;;;8.09;96.50;100553.53;5048548;28;20079;-43
2021/12/29 09:15:56;;;;;;;21.13;7.55;;;;;;;8.13;96.24;100551.34;5048312;28;20029;-44
2021/12/29 09:18:24;;;;;;;16.98;6.10;;;;;;;8.17;95.12;100546.47;5048713;28;20393;-43
2021/12/29 09:20:51;;;;;;;16.58;6.60;;;;;;;8.20;94.75;100551.50;5048472;28;20108;-42
2021/12/29 09:23:17;;;;;;;22.88;6.40;;;;;;;8.11;95.02;100559.56;5048343;28;20033;-44
2021/12/29 09:25:44;;;;;;;14.80;6.53;;;;;;;8.21;94.72;100563.88;5048118;28;20053;-45
2021/12/29 09:28:12;;;;;;;20.40;5.03;;;;;;;8.19;92.43;100568.56;5048711;28;20037;-44
2021/12/29 09:30:40;;;;;;;14.57;6.07;;;;;;;8.22;91.37;100576.28;5046986;28;20827;-44
2021/12/29 09:33:07;;;;;;;18.05;5.47;;;;;;;8.23;91.54;100570.72;5042363;28;20111;-43
2021/12/29 09:35:32;;;;;;;18.15;5.68;;;;;;;8.18;91.22;100566.91;5048038;28;20022;-44
2021/12/29 09:37:57;;;;;;;10.93;5.13;;;;;;;8.23;90.24;100556.50;5039177;28;20115;-43
2021/12/29 09:40:24;;;;;;;25.27;6.70;;;;;;;8.21;91.12;100556.66;5034969;28;20072;-44
2021/12/29 09:42:52;;;;;;;24.23;5.88;;;;;;;8.23;91.59;100553.81;5033418;28;20056;-43
2021/12/29 09:45:18;;;;;;;10.60;5.28;;;;;;;8.23;91.87;100551.97;5034860;28;20081;-43
2021/12/29 09:47:43;;;;;;;20.02;5.72;;;;;;;8.20;91.50;100554.16;5035158;28;20030;-42
2021/12/29 09:50:13;;;;;;;17.77;6.20;;;;;;;8.18;90.82;100540.09;5034411;28;20025;-44
2021/12/29 09:52:39;;;;;;;10.25;6.00;;;;;;;8.23;90.58;100543.09;5033970;28;20031;-44
2021/12/29 09:55:08;;;;;;;13.20;7.70;;;;;;;8.17;91.34;100533.91;5034782;28;20030;-43
2021/12/29 09:57:35;;;;;;;15.18;6.97;;;;;;;8.15;91.73;100538.59;5034778;28;20119;-43
2021/12/29 10:00:03;;;;;;;26.48;7.97;;;;;;;8.17;91.55;100538.44;5034510;28;20029;-42
2021/12/29 10:02:29;;;;;;;21.08;8.13;;;;;;;8.21;91.61;100526.34;5034401;28;20474;-43
2021/12/29 10:04:56;;;;;;;21.70;8.15;;;;;;;8.18;91.56;100524.00;5034334;28;20032;-44
2021/12/29 10:07:22;;;;;;;18.90;9.02;;;;;;;8.35;91.36;100522.94;5034697;28;20104;-43
2021/12/29 10:09:48;;;;;;;27.38;9.98;;;;;;;8.28;91.56;100517.44;5033207;28;20393;-42
2021/12/29 10:12:21;;;;;;;34.45;12.60;;;;;;;8.25;91.51;100514.28;5034469;28;20025;-43
2021/12/29 10:14:53;;;;;;;29.17;13.10;;;;;;;8.36;91.78;100521.91;5034374;28;20025;-42
2021/12/29 10:17:19;;;;;;;34.95;14.95;;;;;;;8.19;92.36;100517.63;5028453;28;20500;-44
2021/12/29 10:19:44;;;;;;;31.20;14.18;;;;;;;8.23;92.85;100516.28;5028803;28;20033;-43
2021/12/29 10:22:23;;;;;;;26.35;13.20;;;;;;;8.33;92.72;100506.19;5032866;28;20047;-44
2021/12/29 10:25:00;;;;;;;25.33;10.88;;;;;;;8.28;92.40;100509.38;5034350;28;20021;-44
2021/12/29 10:27:29;;;;;;;28.15;10.85;;;;;;;8.30;92.55;100517.25;5035413;28;20142;-44
2021/12/29 10:29:55;;;;;;;21.10;9.40;;;;;;;8.25;92.95;100525.00;5043938;28;20334;-43
2021/12/29 10:32:23;;;;;;;17.05;7.60;;;;;;;8.26;92.56;100523.97;5032879;28;20035;-43
2021/12/29 10:34:53;;;;;;;19.48;7.93;;;;;;;8.29;92.45;100519.13;5014591;28;20025;-43
2021/12/29 10:37:23;;;;;;;18.58;6.90;;;;;;;8.32;91.68;100521.44;5032355;28;20045;-44
2021/12/29 10:39:51;;;;;;;24.25;8.40;;;;;;;8.26;92.03;100523.97;5041640;28;20037;-43
2021/12/29 10:42:24;;;;;;;27.60;8.88;;;;;;;8.24;92.00;100529.53;5033733;28;20025;-44
2021/12/29 10:44:58;;;;;;;22.98;8.70;;;;;;;8.19;92.43;100517.63;5041774;28;20405;-44
2021/12/29 10:47:31;;;;;;;21.75;7.63;;;;;;;8.22;92.46;100510.09;5033647;28;20397;-43
2021/12/29 10:50:03;;;;;;;15.95;8.32;;;;;;;8.23;92.06;100519.78;5032551;28;20052;-44
2021/12/29 10:52:31;;;;;;;26.38;9.70;;;;;;;8.25;92.80;100508.91;5033901;28;20091;-42
2021/12/29 10:54:56;;;;;;;21.67;8.88;;;;;;;8.26;92.07;100511.41;5033420;28;20049;-43
2021/12/29 10:57:22;;;;;;;20.17;9.15;;;;;;;8.28;91.73;100513.91;5033945;28;20025;-44
2021/12/29 10:59:52;;;;;;;20.48;9.68;;;;;;;8.35;91.64;100502.31;5033223;28;20049;-44
2021/12/29 11:02:27;;;;;;;26.48;10.20;;;;;;;8.23;91.64;100484.13;5030665;28;20025;-44
2021/12/29 11:04:55;;;;;;;25.55;10.60;;;;;;;8.25;91.91;100461.47;5033130;28;20025;-44
2021/12/29 11:07:27;;;;;;;27.30;11.48;;;;;;;8.16;92.58;100459.00;5032759;28;20367;-44
2021/12/29 11:09:53;;;;;;;27.42;11.50;;;;;;;8.22;93.14;100466.38;5033714;28;20334;-44
2021/12/29 11:12:20;;;;;;;24.38;11.02;;;;;;;8.24;93.08;100464.31;5032849;28;20032;-43
2021/12/29 11:14:50;;;;;;;23.52;11.82;;;;;;;8.13;93.93;100465.56;5033509;28;20026;-43
2021/12/29 11:17:22;;;;;;;32.70;12.50;;;;;;;8.25;94.57;100472.22;5032572;28;20032;-44
2021/12/29 11:19:56;;;;;;;23.95;10.85;;;;;;;8.28;93.77;100468.34;5033389;28;20035;-42
2021/12/29 11:22:24;;;;;;;22.08;10.25;;;;;;;8.33;93.27;100463.28;5033294;28;20076;-44
2021/12/29 11:24:57;;;;;;;23.85;9.90;;;;;;;8.28;93.48;100449.56;5032530;28;20440;-44
2021/12/29 11:27:23;;;;;;;18.50;7.75;;;;;;;8.31;92.89;100446.53;5031722;28;20069;-45